createdAt,value
2018-12-30T00:02:18.339Z,95650.11
2018-12-30T00:04:43.656Z,95655.05
2018-12-30T00:07:10.309Z,95657.34
2018-12-30T00:09:36.963Z,95655.28
2018-12-30T00:12:03.675Z,95656.58
2018-12-30T00:14:30.378Z,95661.75
2018-12-30T00:16:57.074Z,95658.09
2018-12-30T00:19:23.729Z,95658.73
2018-12-30T00:21:50.395Z,95658.98
2018-12-30T00:24:17.066Z,95663.66
2018-12-30T00:26:43.786Z,95658.86
2018-12-30T00:29:10.440Z,95664.68
2018-12-30T00:31:37.105Z,95649.99
2018-12-30T00:34:03.825Z,95655.81
2018-12-30T00:36:30.486Z,95658.22
2018-12-30T00:38:57.144Z,95662.28
2018-12-30T00:41:23.804Z,95660.75
2018-12-30T00:43:50.475Z,95666.83
2018-12-30T00:46:17.170Z,95661.38
2018-12-30T00:48:43.827Z,95657.73
2018-12-30T00:51:17.010Z,95659.50
2018-12-30T00:53:37.195Z,95651.91
2018-12-30T00:56:03.865Z,95655.34
2018-12-30T00:58:31.107Z,95651.53
2018-12-30T01:00:57.241Z,95656.23
2018-12-30T01:03:23.908Z,95657.37
2018-12-30T01:05:50.570Z,95652.17
2018-12-30T01:08:17.228Z,95654.06
2018-12-30T01:10:43.891Z,95654.45
2018-12-30T01:13:10.552Z,95653.20
2018-12-30T01:15:37.202Z,95651.81
2018-12-30T01:18:03.867Z,95652.44
2018-12-30T01:20:30.523Z,95655.70
2018-12-30T01:22:57.183Z,95652.08
2018-12-30T01:25:23.846Z,95645.98
2018-12-30T01:27:50.561Z,95646.37
2018-12-30T01:30:17.224Z,95638.30
2018-12-30T01:32:43.889Z,95632.09
2018-12-30T01:35:10.543Z,95638.41
2018-12-30T01:37:38.410Z,95632.63
2018-12-30T01:40:05.077Z,95632.34
2018-12-30T01:42:31.728Z,95630.70
2018-12-30T01:44:58.415Z,95628.83
2018-12-30T01:47:25.089Z,95627.44
2018-12-30T01:49:51.759Z,95627.83
2018-12-30T01:52:18.410Z,95627.18
2018-12-30T01:54:45.120Z,95632.98
2018-12-30T01:57:11.838Z,95630.22
2018-12-30T01:59:38.498Z,95618.98
2018-12-30T02:02:05.156Z,95614.55
2018-12-30T02:04:31.870Z,95615.07
2018-12-30T02:06:58.526Z,95613.16
2018-12-30T02:09:25.198Z,95612.29
2018-12-30T02:11:51.848Z,95610.26
2018-12-30T02:14:18.573Z,95613.55
2018-12-30T02:16:45.239Z,95610.37
2018-12-30T02:19:11.900Z,95605.73
2018-12-30T02:21:41.172Z,95600.30
2018-12-30T02:24:05.229Z,95596.00
2018-12-30T02:26:31.890Z,95597.64
2018-12-30T02:28:58.612Z,95591.07
2018-12-30T02:31:25.276Z,95590.69
2018-12-30T02:33:51.929Z,95584.24
2018-12-30T02:36:18.596Z,95584.25
2018-12-30T02:38:45.256Z,95576.78
2018-12-30T02:41:11.943Z,95573.52
2018-12-30T02:43:38.593Z,95572.63
2018-12-30T02:46:05.321Z,95572.73
2018-12-30T02:48:31.969Z,95568.21
2018-12-30T02:50:58.707Z,95566.31
2018-12-30T02:53:25.357Z,95565.17
2018-12-30T02:55:52.023Z,95563.89
2018-12-30T02:58:18.675Z,95563.16
2018-12-30T03:00:45.355Z,95566.18
2018-12-30T03:03:12.016Z,95562.39
2018-12-30T03:05:38.680Z,95565.55
2018-12-30T03:08:05.342Z,95555.73
2018-12-30T03:10:32.005Z,95555.33
2018-12-30T03:12:58.719Z,95555.47
2018-12-30T03:15:25.380Z,95560.62
2018-12-30T03:17:52.063Z,95553.33
2018-12-30T03:20:18.708Z,95555.06
2018-12-30T03:22:45.426Z,95555.34
2018-12-30T03:25:12.112Z,95549.79
2018-12-30T03:27:38.829Z,95550.54
2018-12-30T03:30:05.483Z,95554.44
2018-12-30T03:32:32.158Z,95548.78
2018-12-30T03:34:58.819Z,95547.48
2018-12-30T03:37:26.657Z,95539.69
2018-12-30T03:39:52.168Z,95538.30
2018-12-30T03:42:20.320Z,95539.28
2018-12-30T03:44:45.553Z,95533.98
2018-12-30T03:47:12.211Z,95530.05
2018-12-30T03:49:38.880Z,95535.25
2018-12-30T03:52:08.471Z,95531.62
2018-12-30T03:54:32.297Z,95537.78
2018-12-30T03:56:58.962Z,95531.73
2018-12-30T03:59:25.630Z,95531.59
2018-12-30T04:01:52.303Z,95531.59
2018-12-30T04:04:19.029Z,95538.66
2018-12-30T04:06:45.685Z,95533.77
2018-12-30T04:09:12.338Z,95532.86
2018-12-30T04:11:39.007Z,95529.05
2018-12-30T04:14:05.659Z,95534.50
2018-12-30T04:16:32.372Z,95533.12
2018-12-30T04:18:59.042Z,95539.69
2018-12-30T04:21:25.692Z,95538.66
2018-12-30T04:23:52.362Z,95534.75
2018-12-30T04:26:19.015Z,95536.39
2018-12-30T04:28:45.742Z,95540.43
2018-12-30T04:31:12.404Z,95541.94
2018-12-30T04:33:39.071Z,95539.70
2018-12-30T04:36:05.718Z,95535.52
2018-12-30T04:38:32.424Z,95530.08
2018-12-30T04:40:59.166Z,95536.64
2018-12-30T04:43:25.873Z,95528.95
2018-12-30T04:45:52.523Z,95529.45
2018-12-30T04:48:19.219Z,95532.86
2018-12-30T04:50:45.926Z,95529.95
2018-12-30T04:53:12.598Z,95528.44
2018-12-30T04:55:39.402Z,95525.03
2018-12-30T04:58:06.059Z,95530.48
2018-12-30T05:00:32.749Z,95529.59
2018-12-30T05:02:59.410Z,95525.43
2018-12-30T05:05:26.060Z,95531.59
2018-12-30T05:07:52.774Z,95537.17
2018-12-30T05:10:21.461Z,95536.77
2018-12-30T05:12:48.157Z,95537.93
2018-12-30T05:15:14.830Z,95539.80
2018-12-30T05:17:41.507Z,95533.38
2018-12-30T05:20:08.151Z,95533.14
2018-12-30T05:22:34.817Z,95529.42
2018-12-30T05:25:01.485Z,95531.74
2018-12-30T05:27:28.157Z,95528.09
2018-12-30T05:29:54.818Z,95529.81
2018-12-30T05:32:21.475Z,95530.67
2018-12-30T05:34:48.229Z,95528.61
2018-12-30T05:37:17.591Z,95534.44
2018-12-30T05:39:44.251Z,95530.50
2018-12-30T05:42:11.074Z,95531.37
2018-12-30T05:44:37.785Z,95536.77
2018-12-30T05:47:04.391Z,95533.61
2018-12-30T05:49:31.063Z,95532.20
2018-12-30T05:51:57.730Z,95534.70
2018-12-30T05:54:24.460Z,95536.83
2018-12-30T05:56:51.195Z,95545.30
2018-12-30T05:59:17.867Z,95549.83
2018-12-30T06:01:44.521Z,95545.30
2018-12-30T06:04:11.293Z,95543.53
2018-12-30T06:06:37.950Z,95550.98
2018-12-30T06:09:04.667Z,95550.73
2018-12-30T06:11:31.315Z,95550.10
2018-12-30T06:13:58.022Z,95555.03
2018-12-30T06:16:24.757Z,95554.38
2018-12-30T06:18:51.475Z,95554.50
2018-12-30T06:21:18.201Z,95547.69
2018-12-30T06:23:44.904Z,95558.29
2018-12-30T06:26:11.608Z,95556.65
2018-12-30T06:28:38.318Z,95564.23
2018-12-30T06:31:04.969Z,95564.23
2018-12-30T06:33:31.663Z,95562.72
2018-12-30T06:35:58.431Z,95562.44
2018-12-30T06:38:25.144Z,95568.89
2018-12-30T06:40:51.843Z,95572.93
2018-12-30T06:43:18.484Z,95572.56
2018-12-30T06:45:45.136Z,95579.13
2018-12-30T06:48:11.869Z,95571.16
2018-12-30T06:50:38.512Z,95579.98
2018-12-30T06:53:05.213Z,95578.09
2018-12-30T06:55:31.916Z,95576.95
2018-12-30T06:57:58.634Z,95581.51
2018-12-30T07:00:25.286Z,95578.48
2018-12-30T07:02:51.947Z,95573.91
2018-12-30T07:05:18.666Z,95575.42
2018-12-30T07:07:45.334Z,95571.63
2018-12-30T07:10:11.998Z,95570.98
2018-12-30T07:12:38.654Z,95568.70
2018-12-30T07:15:05.356Z,95574.42
2018-12-30T07:17:32.004Z,95578.81
2018-12-30T07:19:58.672Z,95575.02
2018-12-30T07:22:25.411Z,95572.37
2018-12-30T07:24:52.073Z,95567.70
2018-12-30T07:27:18.721Z,95567.20
2018-12-30T07:29:45.406Z,95572.37
2018-12-30T07:32:12.273Z,95567.92
2018-12-30T07:34:38.900Z,95571.84
2018-12-30T07:37:05.566Z,95576.12
2018-12-30T07:39:32.306Z,95575.13
2018-12-30T07:41:59.050Z,95580.17
2018-12-30T07:44:25.699Z,95580.67
2018-12-30T07:46:52.434Z,95589.88
2018-12-30T07:49:19.151Z,95582.58
2018-12-30T07:51:45.828Z,95583.84
2018-12-30T07:54:12.546Z,95586.73
2018-12-30T07:56:39.192Z,95585.72
2018-12-30T07:59:05.845Z,95584.57
2018-12-30T08:01:32.503Z,95585.69
2018-12-30T08:03:59.230Z,95580.66
2018-12-30T08:06:25.919Z,95588.22
2018-12-30T08:08:52.580Z,95587.61
2018-12-30T08:11:19.292Z,95585.56
2018-12-30T08:13:45.960Z,95588.73
2018-12-30T08:16:12.670Z,95589.11
2018-12-30T08:18:39.333Z,95588.47
2018-12-30T08:21:06.008Z,95590.73
2018-12-30T08:23:32.710Z,95594.55
2018-12-30T08:25:59.371Z,95596.05
2018-12-30T08:28:26.089Z,95600.08
2018-12-30T08:30:52.737Z,95602.74
2018-12-30T08:33:19.397Z,95604.27
2018-12-30T08:35:46.055Z,95594.92
2018-12-30T08:38:12.711Z,95596.56
2018-12-30T08:40:39.423Z,95594.30
2018-12-30T08:43:06.087Z,95603.89
2018-12-30T08:45:32.780Z,95602.00
2018-12-30T08:47:59.425Z,95604.14
2018-12-30T08:50:26.133Z,95601.89
2018-12-30T08:52:52.786Z,95596.92
2018-12-30T08:55:19.445Z,95599.47
2018-12-30T08:57:46.120Z,95591.50
2018-12-30T09:00:12.903Z,95599.97
2018-12-30T09:02:39.734Z,95593.80
2018-12-30T09:05:06.437Z,95589.11
2018-12-30T09:07:33.086Z,95593.27
2018-12-30T09:09:59.756Z,95594.80
2018-12-30T09:12:26.455Z,95593.27
2018-12-30T09:14:53.120Z,95592.39
2018-12-30T09:17:19.772Z,95587.84
2018-12-30T09:19:46.436Z,95585.67
2018-12-30T09:22:13.139Z,95582.91
2018-12-30T09:24:39.783Z,95586.07
2018-12-30T09:27:06.444Z,95577.48
2018-12-30T09:29:33.097Z,95579.63
2018-12-30T09:31:59.791Z,95571.29
2018-12-30T09:34:26.458Z,95573.92
2018-12-30T09:36:53.385Z,95569.39
2018-12-30T09:39:19.834Z,95577.70
2018-12-30T09:41:46.486Z,95568.23
2018-12-30T09:44:13.192Z,95567.22
2018-12-30T09:46:39.847Z,95567.59
2018-12-30T09:49:06.564Z,95569.88
2018-12-30T09:51:33.210Z,95565.70
2018-12-30T09:53:59.871Z,95559.13
2018-12-30T09:56:26.543Z,95562.16
2018-12-30T09:58:53.253Z,95555.74
2018-12-30T10:01:19.905Z,95558.75
2018-12-30T10:03:46.616Z,95547.91
2018-12-30T10:06:13.331Z,95551.67
2018-12-30T10:08:39.982Z,95541.69
2018-12-30T10:11:06.689Z,95547.02
2018-12-30T10:13:33.341Z,95536.28
2018-12-30T10:16:00.027Z,95527.27
2018-12-30T10:18:26.700Z,95528.19
2018-12-30T10:20:53.363Z,95530.72
2018-12-30T10:23:20.083Z,95524.88
2018-12-30T10:25:46.844Z,95517.92
2018-12-30T10:28:13.553Z,95522.47
2018-12-30T10:30:40.204Z,95519.19
2018-12-30T10:33:06.923Z,95504.52
2018-12-30T10:35:33.641Z,95509.33
2018-12-30T10:38:00.299Z,95506.70
2018-12-30T10:40:26.959Z,95499.47
2018-12-30T10:42:53.631Z,95491.00
2018-12-30T10:45:20.335Z,95488.34
2018-12-30T10:47:47.024Z,95489.73
2018-12-30T10:50:13.678Z,95498.08
2018-12-30T10:52:40.466Z,95489.99
2018-12-30T10:55:07.124Z,95487.59
2018-12-30T10:57:33.853Z,95486.45
2018-12-30T11:00:00.561Z,95485.69
2018-12-30T11:02:27.223Z,95481.02
2018-12-30T11:04:53.935Z,95483.16
2018-12-30T11:07:20.653Z,95484.17
2018-12-30T11:09:47.302Z,95477.35
2018-12-30T11:12:13.958Z,95472.83
2018-12-30T11:14:40.645Z,95476.36
2018-12-30T11:17:07.321Z,95468.16
2018-12-30T11:19:33.979Z,95472.45
2018-12-30T11:22:00.686Z,95469.80
2018-12-30T11:24:27.344Z,95465.75
2018-12-30T11:26:54.148Z,95465.75
2018-12-30T11:29:20.821Z,95461.70
2018-12-30T11:31:47.523Z,95466.51
2018-12-30T11:34:14.231Z,95464.10
2018-12-30T11:36:40.883Z,95462.97
2018-12-30T11:39:07.599Z,95463.59
2018-12-30T11:41:34.275Z,95471.08
2018-12-30T11:44:00.985Z,95457.56
2018-12-30T11:46:27.704Z,95460.84
2018-12-30T11:48:54.352Z,95464.98
2018-12-30T11:51:21.070Z,95460.34
2018-12-30T11:53:47.728Z,95462.88
2018-12-30T11:56:14.433Z,95468.69
2018-12-30T11:58:41.155Z,95459.96
2018-12-30T12:01:07.804Z,95457.94
2018-12-30T12:03:34.518Z,95456.30
2018-12-30T12:06:01.359Z,95453.89
2018-12-30T12:08:28.082Z,95456.80
2018-12-30T12:10:54.748Z,95457.69
2018-12-30T12:13:21.561Z,95453.64
2018-12-30T12:15:48.227Z,95455.16
2018-12-30T12:18:14.924Z,95460.47
2018-12-30T12:20:41.632Z,95463.00
2018-12-30T12:23:08.347Z,95456.95
2018-12-30T12:25:35.005Z,95455.69
2018-12-30T12:28:01.723Z,95453.92
2018-12-30T12:30:28.368Z,95460.11
2018-12-30T12:32:55.041Z,95461.48
2018-12-30T12:35:21.742Z,95462.29
2018-12-30T12:37:48.391Z,95459.86
2018-12-30T12:40:15.118Z,95461.73
2018-12-30T12:42:41.802Z,95460.11
2018-12-30T12:45:08.450Z,95457.48
2018-12-30T12:47:35.134Z,95465.83
2018-12-30T12:50:01.841Z,95469.72
2018-12-30T12:52:28.554Z,95465.70
2018-12-30T12:54:55.206Z,95466.55
2018-12-30T12:57:21.906Z,95467.56
2018-12-30T12:59:48.572Z,95462.52
2018-12-30T13:02:15.311Z,95460.52
2018-12-30T13:04:41.975Z,95459.41
2018-12-30T13:07:08.636Z,95457.48
2018-12-30T13:09:35.303Z,95452.84
2018-12-30T13:12:01.976Z,95464.69
2018-12-30T13:14:28.642Z,95459.88
2018-12-30T13:16:55.372Z,95460.80
2018-12-30T13:19:22.022Z,95456.98
2018-12-30T13:21:48.687Z,95454.98
2018-12-30T13:24:15.349Z,95458.59
2018-12-30T13:26:42.058Z,95454.83
2018-12-30T13:29:08.773Z,95466.89
2018-12-30T13:31:35.429Z,95455.66
2018-12-30T13:34:02.140Z,95460.85
2018-12-30T13:36:28.846Z,95462.97
2018-12-30T13:38:58.506Z,95463.80
2018-12-30T13:41:25.197Z,95463.14
2018-12-30T13:43:51.853Z,95459.80
2018-12-30T13:46:18.567Z,95463.32
2018-12-30T13:48:45.215Z,95463.05
2018-12-30T13:51:11.911Z,95464.89
2018-12-30T13:53:40.802Z,95466.18
2018-12-30T13:56:07.454Z,95465.02
2018-12-30T13:58:34.112Z,95472.34
2018-12-30T14:01:00.779Z,95464.39
2018-12-30T14:03:27.448Z,95469.69
2018-12-30T14:05:54.106Z,95462.59
2018-12-30T14:08:20.775Z,95465.37
2018-12-30T14:10:47.434Z,95463.22
2018-12-30T14:13:14.103Z,95462.05
2018-12-30T14:15:40.748Z,95463.83
2018-12-30T14:18:07.463Z,95459.02
2018-12-30T14:20:34.068Z,95459.88
2018-12-30T14:23:00.736Z,95463.30
2018-12-30T14:25:27.415Z,95468.48
2018-12-30T14:27:54.090Z,95464.96
2018-12-30T14:30:20.723Z,95467.21
2018-12-30T14:32:47.384Z,95463.17
2018-12-30T14:35:14.031Z,95462.41
2018-12-30T14:37:40.691Z,95467.31
2018-12-30T14:40:07.364Z,95466.55
2018-12-30T14:42:34.035Z,95465.29
2018-12-30T14:45:00.691Z,95471.52
2018-12-30T14:47:27.352Z,95473.13
2018-12-30T14:49:54.011Z,95475.02
2018-12-30T14:52:20.660Z,95471.98
2018-12-30T14:54:50.109Z,95476.54
2018-12-30T14:57:16.776Z,95473.76
2018-12-30T14:59:43.444Z,95473.76
2018-12-30T15:02:10.126Z,95475.53
2018-12-30T15:04:36.776Z,95474.39
2018-12-30T15:07:03.426Z,95475.27
2018-12-30T15:09:35.658Z,95474.77
2018-12-30T15:11:56.745Z,95468.73
2018-12-30T15:14:23.420Z,95478.31
2018-12-30T15:16:50.079Z,95475.41
2018-12-30T15:19:16.744Z,95475.15
2018-12-30T15:21:43.432Z,95481.50
2018-12-30T15:24:10.106Z,95484.02
2018-12-30T15:26:36.761Z,95481.24
2018-12-30T15:29:03.430Z,95482.03
2018-12-30T15:31:30.089Z,95492.42
2018-12-30T15:33:56.763Z,95491.13
2018-12-30T15:36:23.429Z,95489.10
2018-12-30T15:38:50.092Z,95485.56
2018-12-30T15:41:16.747Z,95487.48
2018-12-30T15:43:43.420Z,95487.11
2018-12-30T15:46:10.092Z,95488.50
2018-12-30T15:48:36.759Z,95484.83
2018-12-30T15:51:03.502Z,95485.75
2018-12-30T15:53:30.167Z,95488.65
2018-12-30T15:55:56.882Z,95486.13
2018-12-30T15:58:23.548Z,95487.26
2018-12-30T16:00:50.218Z,95483.84
2018-12-30T16:03:16.866Z,95485.52
2018-12-30T16:05:43.529Z,95485.37
2018-12-30T16:08:10.235Z,95485.48
2018-12-30T16:10:36.896Z,95484.62
2018-12-30T16:13:03.551Z,95483.52
2018-12-30T16:15:30.221Z,95483.90
2018-12-30T16:17:56.876Z,95487.94
2018-12-30T16:20:23.536Z,95486.30
2018-12-30T16:22:50.202Z,95493.34
2018-12-30T16:25:16.868Z,95484.52
2018-12-30T16:27:43.553Z,95486.42
2018-12-30T16:30:10.213Z,95486.20
2018-12-30T16:32:36.869Z,95494.77
2018-12-30T16:35:03.533Z,95495.80
2018-12-30T16:37:30.205Z,95495.91
2018-12-30T16:39:56.898Z,95493.14
2018-12-30T16:42:23.555Z,95498.30
2018-12-30T16:44:50.241Z,95498.33
2018-12-30T16:47:16.884Z,95496.30
2018-12-30T16:49:43.612Z,95500.47
2018-12-30T16:52:10.259Z,95499.81
2018-12-30T16:54:38.401Z,95498.95
2018-12-30T16:57:03.598Z,95502.37
2018-12-30T16:59:30.267Z,95503.37
2018-12-30T17:01:56.974Z,95500.73
2018-12-30T17:04:23.641Z,95505.17
2018-12-30T17:06:50.325Z,95503.25
2018-12-30T17:09:17.056Z,95505.30
2018-12-30T17:11:43.801Z,95510.20
2018-12-30T17:14:10.465Z,95514.39
2018-12-30T17:16:37.123Z,95516.04
2018-12-30T17:19:03.780Z,95512.75
2018-12-30T17:21:30.474Z,95514.02
2018-12-30T17:23:57.134Z,95514.65
2018-12-30T17:26:23.803Z,95512.14
2018-12-30T17:28:50.455Z,95520.86
2018-12-30T17:31:17.171Z,95517.55
2018-12-30T17:33:43.826Z,95521.59
2018-12-30T17:36:10.494Z,95530.84
2018-12-30T17:38:37.191Z,95520.71
2018-12-30T17:41:03.850Z,95525.03
2018-12-30T17:43:30.510Z,95525.03
2018-12-30T17:45:57.156Z,95525.03
2018-12-30T17:48:23.872Z,95530.31
2018-12-30T17:50:50.531Z,95528.44
2018-12-30T17:53:17.203Z,95526.16
2018-12-30T17:55:50.559Z,95525.38
2018-12-30T17:58:10.527Z,95532.86
2018-12-30T18:00:37.250Z,95528.54
2018-12-30T18:03:03.901Z,95527.44
2018-12-30T18:05:30.714Z,95526.77
2018-12-30T18:07:57.380Z,95521.61
2018-12-30T18:10:24.040Z,95525.41
2018-12-30T18:12:50.814Z,95526.16
2018-12-30T18:15:17.537Z,95527.69
2018-12-30T18:17:44.192Z,95526.80
2018-12-30T18:20:10.849Z,95523.77
2018-12-30T18:22:37.509Z,95529.72
2018-12-30T18:25:04.181Z,95529.09
2018-12-30T18:27:30.902Z,95534.77
2018-12-30T18:29:57.557Z,95533.25
2018-12-30T18:32:24.224Z,95530.59
2018-12-30T18:34:50.903Z,95531.74
2018-12-30T18:37:17.557Z,95523.91
2018-12-30T18:39:44.295Z,95521.50
2018-12-30T18:42:10.960Z,95521.48
2018-12-30T18:44:37.636Z,95516.58
2018-12-30T18:47:04.326Z,95524.80
2018-12-30T18:49:31.061Z,95531.39
2018-12-30T18:51:57.723Z,95527.20
2018-12-30T18:54:24.384Z,95525.06
2018-12-30T18:56:51.121Z,95522.54
2018-12-30T18:59:17.827Z,95521.53
2018-12-30T19:01:47.414Z,95518.25
2018-12-30T19:04:14.085Z,95519.13
2018-12-30T19:06:40.755Z,95521.15
2018-12-30T19:09:07.433Z,95524.94
2018-12-30T19:11:34.176Z,95526.95
2018-12-30T19:14:00.883Z,95520.54
2018-12-30T19:16:27.492Z,95515.86
2018-12-30T19:18:54.158Z,95517.61
2018-12-30T19:21:20.824Z,95523.07
2018-12-30T19:23:47.502Z,95518.12
2018-12-30T19:26:14.602Z,95522.41
2018-12-30T19:28:40.820Z,95519.52
2018-12-30T19:31:07.483Z,95519.13
2018-12-30T19:33:34.143Z,95518.48
2018-12-30T19:36:00.873Z,95517.80
2018-12-30T19:38:27.578Z,95512.52
2018-12-30T19:40:54.240Z,95507.97
2018-12-30T19:43:20.914Z,95507.31
2018-12-30T19:45:47.573Z,95505.93
2018-12-30T19:48:14.255Z,95509.06
2018-12-30T19:50:40.919Z,95510.43
2018-12-30T19:53:07.587Z,95502.62
2018-12-30T19:55:34.234Z,95503.50
2018-12-30T19:58:00.957Z,95499.20
2018-12-30T20:00:27.618Z,95497.59
2018-12-30T20:02:54.273Z,95500.09
2018-12-30T20:05:20.978Z,95495.64
2018-12-30T20:07:47.633Z,95498.42
2018-12-30T20:10:14.365Z,95498.08
2018-12-30T20:12:41.029Z,95498.30
2018-12-30T20:15:07.803Z,95503.45
2018-12-30T20:17:34.466Z,95503.59
2018-12-30T20:20:02.291Z,95505.97
2018-12-30T20:22:27.845Z,95504.47
2018-12-30T20:24:54.553Z,95502.30
2018-12-30T20:27:21.217Z,95502.17
2018-12-30T20:29:47.890Z,95496.38
2018-12-30T20:32:14.597Z,95496.36
2018-12-30T20:34:41.250Z,95499.64
2018-12-30T20:37:07.918Z,95496.86
2018-12-30T20:39:34.593Z,95490.04
2018-12-30T20:42:01.233Z,95497.25
2018-12-30T20:44:27.896Z,95498.36
2018-12-30T20:46:54.550Z,95495.58
2018-12-30T20:49:21.246Z,95497.34
2018-12-30T20:51:47.955Z,95495.20
2018-12-30T20:54:14.609Z,95492.42
2018-12-30T20:56:41.327Z,95495.70
2018-12-30T20:59:07.974Z,95496.86
2018-12-30T21:01:36.547Z,95493.55
2018-12-30T21:04:01.406Z,95499.11
2018-12-30T21:06:28.083Z,95497.47
2018-12-30T21:08:54.732Z,95503.44
2018-12-30T21:11:21.416Z,95502.91
2018-12-30T21:13:48.101Z,95496.59
2018-12-30T21:16:14.795Z,95497.85
2018-12-30T21:18:41.471Z,95500.00
2018-12-30T21:21:08.117Z,95496.21
2018-12-30T21:23:34.851Z,95501.39
2018-12-30T21:26:01.504Z,95498.61
2018-12-30T21:28:28.183Z,95499.88
2018-12-30T21:30:54.870Z,95497.74
2018-12-30T21:33:21.598Z,95495.92
2018-12-30T21:35:48.252Z,95498.92
2018-12-30T21:38:14.992Z,95496.45
2018-12-30T21:40:41.627Z,95501.09
2018-12-30T21:43:08.290Z,95505.25
2018-12-30T21:45:35.001Z,95497.25
2018-12-30T21:48:01.659Z,95500.39
2018-12-30T21:50:28.379Z,95502.03
2018-12-30T21:52:55.024Z,95501.76
2018-12-30T21:55:21.710Z,95499.81
2018-12-30T21:57:48.394Z,95497.64
2018-12-30T22:00:15.113Z,95496.76
2018-12-30T22:02:41.767Z,95497.63
2018-12-30T22:05:08.421Z,95496.61
2018-12-30T22:07:35.117Z,95489.28
2018-12-30T22:10:03.362Z,95493.47
2018-12-30T22:12:28.428Z,95486.83
2018-12-30T22:14:55.087Z,95487.20
2018-12-30T22:17:21.796Z,95485.05
2018-12-30T22:19:48.532Z,95481.52
2018-12-30T22:22:15.202Z,95480.53
2018-12-30T22:24:41.917Z,95478.00
2018-12-30T22:27:08.579Z,95478.41
2018-12-30T22:29:35.234Z,95480.55
2018-12-30T22:32:01.925Z,95482.42
2018-12-30T22:34:28.579Z,95478.63
2018-12-30T22:36:55.236Z,95480.66
2018-12-30T22:39:21.906Z,95477.02
2018-12-30T22:41:48.574Z,95479.03
2018-12-30T22:44:15.262Z,95480.05
2018-12-30T22:46:41.916Z,95476.01
2018-12-30T22:49:08.587Z,95476.00
2018-12-30T22:51:35.248Z,95472.72
2018-12-30T22:54:01.957Z,95473.13
2018-12-30T22:56:28.603Z,95471.33
2018-12-30T22:58:55.329Z,95472.74
2018-12-30T23:01:21.998Z,95472.21
2018-12-30T23:03:49.862Z,95470.09
2018-12-30T23:06:15.368Z,95462.39
2018-12-30T23:08:42.071Z,95469.59
2018-12-30T23:11:08.771Z,95464.63
2018-12-30T23:13:35.445Z,95460.13
2018-12-30T23:16:02.151Z,95458.87
2018-12-30T23:18:28.857Z,95460.33
2018-12-30T23:20:55.513Z,95457.48
2018-12-30T23:23:22.216Z,95459.98
2018-12-30T23:25:48.873Z,95455.30
2018-12-30T23:28:15.569Z,95461.91
2018-12-30T23:30:42.231Z,95455.59
2018-12-30T23:33:08.889Z,95458.74
2018-12-30T23:35:35.531Z,95453.79
2018-12-30T23:38:02.247Z,95458.87
2018-12-30T23:40:28.908Z,95460.13
2018-12-30T23:42:55.576Z,95464.78
2018-12-30T23:45:22.286Z,95467.20
2018-12-30T23:47:48.952Z,95462.02
2018-12-30T23:50:15.624Z,95465.69
2018-12-30T23:52:42.293Z,95467.58
2018-12-30T23:55:08.944Z,95468.34
2018-12-30T23:57:35.601Z,95464.80
